createdAt,value
2023-06-13T00:01:09.980Z,40.58
2023-06-13T00:03:38.375Z,40.47
2023-06-13T00:06:08.549Z,40.90
2023-06-13T00:08:36.452Z,41.28
2023-06-13T00:11:04.379Z,41.32
2023-06-13T00:13:32.220Z,41.55
2023-06-13T00:16:01.104Z,41.90
2023-06-13T00:18:31.894Z,41.85
2023-06-13T00:21:00.561Z,41.92
2023-06-13T00:23:29.808Z,42.06
2023-06-13T00:25:57.972Z,41.85
2023-06-13T00:28:26.090Z,42.32
2023-06-13T00:30:54.114Z,42.28
2023-06-13T00:33:22.313Z,42.31
2023-06-13T00:35:50.208Z,42.71
2023-06-13T00:38:24.187Z,42.72
2023-06-13T00:40:53.570Z,42.68
2023-06-13T00:43:21.561Z,42.82
2023-06-13T00:45:49.473Z,42.99
2023-06-13T00:48:18.040Z,43.49
2023-06-13T00:50:46.736Z,43.32
2023-06-13T00:53:18.035Z,43.58
2023-06-13T00:55:46.908Z,43.76
2023-06-13T00:58:17.931Z,43.68
2023-06-13T01:00:46.702Z,43.90
2023-06-13T01:03:17.110Z,43.96
2023-06-13T01:05:46.097Z,44.23
2023-06-13T01:08:17.730Z,44.24
2023-06-13T01:10:48.337Z,44.30
2023-06-13T01:13:20.933Z,44.39
2023-06-13T01:15:54.308Z,44.76
2023-06-13T01:18:25.970Z,45.09
2023-06-13T01:20:57.388Z,45.24
2023-06-13T01:23:39.373Z,45.20
2023-06-13T01:26:14.922Z,45.33
2023-06-13T01:28:46.284Z,45.64
2023-06-13T01:31:17.813Z,45.54
2023-06-13T01:33:46.165Z,45.75
2023-06-13T01:36:15.190Z,46.08
2023-06-13T01:38:43.204Z,46.06
2023-06-13T01:41:11.085Z,46.74
2023-06-13T01:43:38.984Z,47.08
2023-06-13T01:46:12.306Z,46.72
2023-06-13T01:48:47.130Z,46.51
2023-06-13T01:51:20.801Z,46.85
2023-06-13T01:53:53.604Z,47.08
2023-06-13T01:56:24.130Z,46.72
2023-06-13T01:58:57.140Z,46.94
2023-06-13T02:01:28.061Z,47.18
2023-06-13T02:03:56.696Z,46.96
2023-06-13T02:06:24.722Z,47.21
2023-06-13T02:08:53.631Z,47.08
2023-06-13T02:11:21.667Z,47.34
2023-06-13T02:13:50.948Z,47.24
2023-06-13T02:16:19.252Z,47.45
2023-06-13T02:18:49.072Z,47.72
2023-06-13T02:21:17.106Z,47.56
2023-06-13T02:23:45.663Z,48.10
2023-06-13T02:26:14.526Z,47.65
2023-06-13T02:28:42.661Z,47.93
2023-06-13T02:31:10.949Z,48.06
2023-06-13T02:33:39.142Z,48.20
2023-06-13T02:36:08.681Z,48.30
2023-06-13T02:38:37.545Z,48.80
2023-06-13T02:41:05.526Z,48.84
2023-06-13T02:43:33.432Z,48.41
2023-06-13T02:46:01.674Z,48.49
2023-06-13T02:48:29.736Z,48.94
2023-06-13T02:50:58.421Z,48.95
2023-06-13T02:53:27.749Z,49.05
2023-06-13T02:55:55.922Z,49.30
2023-06-13T02:58:23.959Z,49.61
2023-06-13T03:00:52.881Z,49.50
2023-06-13T03:03:25.713Z,50.06
2023-06-13T03:05:58.218Z,50.04
2023-06-13T03:08:32.799Z,50.45
2023-06-13T03:11:01.240Z,50.28
2023-06-13T03:13:29.661Z,50.26
2023-06-13T03:15:58.694Z,50.67
2023-06-13T03:18:28.562Z,50.76
2023-06-13T03:20:57.525Z,50.86
2023-06-13T03:23:26.473Z,50.80
2023-06-13T03:25:56.762Z,50.84
2023-06-13T03:28:25.041Z,50.79
2023-06-13T03:30:56.034Z,50.99
2023-06-13T03:33:24.396Z,51.23
2023-06-13T03:35:54.418Z,51.18
2023-06-13T03:38:28.627Z,51.20
2023-06-13T03:40:58.432Z,51.49
2023-06-13T03:43:27.627Z,51.58
2023-06-13T03:45:55.775Z,51.77
2023-06-13T03:48:24.661Z,51.53
2023-06-13T03:50:52.664Z,51.53
2023-06-13T03:53:21.127Z,51.87
2023-06-13T03:55:51.054Z,52.12
2023-06-13T03:58:22.068Z,52.04
2023-06-13T04:00:50.099Z,52.33
2023-06-13T04:03:18.383Z,51.86
2023-06-13T04:05:46.418Z,51.95
2023-06-13T04:08:14.323Z,51.80
2023-06-13T04:10:42.187Z,52.25
2023-06-13T04:13:10.093Z,52.29
2023-06-13T04:15:39.397Z,52.33
2023-06-13T04:18:08.020Z,52.24
2023-06-13T04:20:37.941Z,51.96
2023-06-13T04:23:06.064Z,51.58
2023-06-13T04:25:34.397Z,51.65
2023-06-13T04:28:02.428Z,51.75
2023-06-13T04:30:31.892Z,51.84
2023-06-13T04:33:03.471Z,51.54
2023-06-13T04:35:38.399Z,51.01
2023-06-13T04:38:06.412Z,50.64
2023-06-13T04:40:34.464Z,50.54
2023-06-13T04:43:05.070Z,50.41
2023-06-13T04:45:34.177Z,49.93
2023-06-13T04:48:04.378Z,49.79
2023-06-13T04:50:34.160Z,49.14
2023-06-13T04:53:02.130Z,49.35
2023-06-13T04:55:33.735Z,48.80
2023-06-13T04:58:01.980Z,48.85
2023-06-13T05:00:30.490Z,48.13
2023-06-13T05:03:01.666Z,48.12
2023-06-13T05:05:31.476Z,47.67
2023-06-13T05:08:00.713Z,47.37
2023-06-13T05:10:29.781Z,47.12
2023-06-13T05:12:58.697Z,46.77
2023-06-13T05:15:26.705Z,46.41
2023-06-13T05:17:58.540Z,46.30
2023-06-13T05:20:28.744Z,46.12
2023-06-13T05:22:58.147Z,46.06
2023-06-13T05:25:28.371Z,46.25
2023-06-13T05:27:56.902Z,45.67
2023-06-13T05:30:25.032Z,45.43
2023-06-13T05:32:53.418Z,44.93
2023-06-13T05:35:21.456Z,44.88
2023-06-13T05:37:49.981Z,44.99
2023-06-13T05:40:19.663Z,44.97
2023-06-13T05:42:47.584Z,44.86
2023-06-13T05:45:15.522Z,45.12
2023-06-13T05:47:43.515Z,43.99
2023-06-13T05:50:13.010Z,43.84
2023-06-13T05:52:41.098Z,44.36
2023-06-13T05:55:09.590Z,44.46
2023-06-13T05:57:42.830Z,43.76
2023-06-13T06:00:14.629Z,44.24
2023-06-13T06:02:43.952Z,43.95
2023-06-13T06:05:12.743Z,43.56
2023-06-13T06:07:41.056Z,43.72
2023-06-13T06:10:10.239Z,43.79
2023-06-13T06:12:38.405Z,43.64
2023-06-13T06:15:08.705Z,43.02
2023-06-13T06:17:37.014Z,42.68
2023-06-13T06:20:07.306Z,42.67
2023-06-13T06:22:35.292Z,43.05
2023-06-13T06:25:03.162Z,42.58
2023-06-13T06:27:31.105Z,42.63
2023-06-13T06:29:59.117Z,42.26
2023-06-13T06:32:28.394Z,41.09
2023-06-13T06:34:56.347Z,40.65
2023-06-13T06:37:25.821Z,40.97
2023-06-13T06:39:53.789Z,40.83
2023-06-13T06:42:21.824Z,40.19
2023-06-13T06:45:11.005Z,40.19
2023-06-13T06:47:40.377Z,40.65
2023-06-13T06:50:08.503Z,40.80
2023-06-13T06:52:36.564Z,40.04
2023-06-13T06:55:04.794Z,39.40
2023-06-13T06:57:32.711Z,38.40
2023-06-13T07:00:00.721Z,38.16
2023-06-13T07:02:28.648Z,37.69
2023-06-13T07:04:59.053Z,36.85
2023-06-13T07:07:26.950Z,36.94
2023-06-13T07:09:54.953Z,36.15
2023-06-13T07:12:22.929Z,36.45
2023-06-13T07:14:50.938Z,36.53
2023-06-13T07:17:18.935Z,36.29
2023-06-13T07:19:47.016Z,36.19
2023-06-13T07:22:16.235Z,35.88
2023-06-13T07:24:44.335Z,35.83
2023-06-13T07:27:13.158Z,35.27
2023-06-13T07:29:41.441Z,33.27
2023-06-13T07:32:10.217Z,31.40
2023-06-13T07:37:09.065Z,30.32
2023-06-13T07:39:38.300Z,29.43
2023-06-13T07:42:07.562Z,28.92
2023-06-13T07:44:35.723Z,27.88
2023-06-13T07:47:03.713Z,27.09
2023-06-13T07:49:32.114Z,26.57
2023-06-13T07:52:00.243Z,28.25
2023-06-13T07:54:28.232Z,30.00
2023-06-13T07:57:00.982Z,30.51
2023-06-13T07:59:29.331Z,31.54
2023-06-13T08:01:57.244Z,30.44
2023-06-13T08:04:29.053Z,28.59
2023-06-13T08:07:05.365Z,27.09
2023-06-13T08:09:33.344Z,25.70
2023-06-13T08:12:02.931Z,24.67
2023-06-13T08:14:30.866Z,22.99
2023-06-13T08:16:59.722Z,22.07
2023-06-13T08:19:27.598Z,22.60
2023-06-13T08:21:55.608Z,20.95
2023-06-13T08:24:23.908Z,20.07
2023-06-13T08:26:53.596Z,23.05
2023-06-13T08:29:24.645Z,23.28
2023-06-13T08:31:52.671Z,23.28
2023-06-13T08:34:21.389Z,23.92
2023-06-13T08:36:49.792Z,26.59
2023-06-13T08:39:18.110Z,27.37
2023-06-13T08:41:46.439Z,26.30
2023-06-13T08:44:14.552Z,26.10
2023-06-13T08:46:43.886Z,24.26
2023-06-13T08:49:12.191Z,22.39
2023-06-13T08:51:40.073Z,20.53
2023-06-13T08:54:09.255Z,20.75
2023-06-13T08:56:44.583Z,21.93
2023-06-13T08:59:16.784Z,20.97
2023-06-13T09:01:46.670Z,23.44
2023-06-13T09:04:14.933Z,20.62
2023-06-13T09:06:44.872Z,19.94
2023-06-13T09:09:13.562Z,22.01
2023-06-13T09:11:41.611Z,24.78
2023-06-13T09:14:10.044Z,25.24
2023-06-13T09:16:38.584Z,24.74
2023-06-13T09:19:07.892Z,23.27
2023-06-13T09:21:37.899Z,21.60
2023-06-13T09:24:09.216Z,20.19
2023-06-13T09:26:37.216Z,18.96
2023-06-13T09:29:21.083Z,17.27
2023-06-13T09:31:51.277Z,17.75
2023-06-13T09:34:21.692Z,20.11
2023-06-13T09:36:50.115Z,18.91
2023-06-13T09:39:18.110Z,20.93
2023-06-13T09:41:46.030Z,21.96
2023-06-13T09:44:14.368Z,20.04
2023-06-13T09:46:42.867Z,19.26
2023-06-13T09:49:10.800Z,19.03
2023-06-13T09:51:41.692Z,18.87
2023-06-13T09:54:10.304Z,19.15
2023-06-13T09:56:38.322Z,19.21
2023-06-13T09:59:06.242Z,20.02
2023-06-13T10:01:36.197Z,20.32
2023-06-13T10:04:06.854Z,19.53
2023-06-13T10:06:34.806Z,20.07
2023-06-13T10:09:04.168Z,21.57
2023-06-13T10:11:35.265Z,24.03
2023-06-13T10:14:07.842Z,23.48
2023-06-13T10:16:43.763Z,22.05
2023-06-13T10:19:20.732Z,22.41
2023-06-13T10:24:22.074Z,23.71
2023-06-13T10:26:50.281Z,25.27
2023-06-13T10:29:31.863Z,23.96
2023-06-13T10:32:10.149Z,22.45
2023-06-13T10:34:50.020Z,22.70
2023-06-13T10:37:47.021Z,25.31
2023-06-13T10:40:59.069Z,27.26
2023-06-13T10:43:32.274Z,27.73
2023-06-13T10:46:03.052Z,27.91
2023-06-13T10:48:37.536Z,26.56
2023-06-13T10:51:06.433Z,26.17
2023-06-13T10:53:35.262Z,26.51
2023-06-13T10:56:05.006Z,26.30
2023-06-13T10:58:32.888Z,24.89
2023-06-13T11:01:05.951Z,25.12
2023-06-13T11:03:34.416Z,25.53
2023-06-13T11:06:07.568Z,26.00
2023-06-13T11:08:38.065Z,26.39
2023-06-13T11:11:07.449Z,26.03
2023-06-13T11:13:36.488Z,25.92
2023-06-13T11:16:19.187Z,25.87
2023-06-13T11:18:48.498Z,26.70
2023-06-13T11:21:16.627Z,28.57
2023-06-13T11:23:52.447Z,27.01
2023-06-13T11:26:22.518Z,26.33
2023-06-13T11:28:55.014Z,26.12
2023-06-13T11:31:23.157Z,26.28
2023-06-13T11:33:53.583Z,25.48
2023-06-13T11:36:25.179Z,24.89
2023-06-13T11:39:00.072Z,23.88
2023-06-13T11:41:29.669Z,23.37
2023-06-13T11:43:57.982Z,23.55
2023-06-13T11:46:25.978Z,23.06
2023-06-13T11:48:57.123Z,23.33
2023-06-13T11:51:25.786Z,23.40
2023-06-13T11:53:54.870Z,22.51
2023-06-13T11:56:24.936Z,21.77
2023-06-13T11:58:55.285Z,22.35
2023-06-13T12:01:28.380Z,22.59
2023-06-13T12:03:59.155Z,22.10
2023-06-13T12:06:27.943Z,22.06
2023-06-13T12:08:55.809Z,22.97
2023-06-13T12:11:26.903Z,24.81
2023-06-13T12:13:58.071Z,26.09
2023-06-13T12:16:29.333Z,25.69
2023-06-13T12:18:57.873Z,25.37
2023-06-13T12:21:28.493Z,24.12
2023-06-13T12:23:57.654Z,26.00
2023-06-13T12:26:26.076Z,25.63
2023-06-13T12:28:59.333Z,24.90
2023-06-13T12:31:33.435Z,24.48
2023-06-13T12:34:14.528Z,23.58
2023-06-13T12:36:45.349Z,23.98
2023-06-13T12:39:15.455Z,25.70
2023-06-13T12:41:48.998Z,25.83
2023-06-13T12:44:19.239Z,25.40
2023-06-13T12:46:47.742Z,25.19
2023-06-13T12:49:16.996Z,25.01
2023-06-13T12:51:45.837Z,24.78
2023-06-13T12:54:17.332Z,24.09
2023-06-13T12:56:53.211Z,24.18
2023-06-13T12:59:30.021Z,25.06
2023-06-13T13:01:57.994Z,25.52
2023-06-13T13:04:30.616Z,26.03
2023-06-13T13:06:58.852Z,25.06
2023-06-13T13:09:27.208Z,25.70
2023-06-13T13:11:56.901Z,27.25
2023-06-13T13:14:27.029Z,27.55
2023-06-13T13:16:55.342Z,27.50
2023-06-13T13:19:23.709Z,27.49
2023-06-13T13:21:51.937Z,26.42
2023-06-13T13:24:20.397Z,26.34
2023-06-13T13:26:49.901Z,27.06
2023-06-13T13:29:18.057Z,27.64
2023-06-13T13:31:48.107Z,27.83
2023-06-13T13:34:23.039Z,26.80
2023-06-13T13:36:54.798Z,27.10
2023-06-13T13:39:24.203Z,26.26
2023-06-13T13:41:52.321Z,24.67
2023-06-13T13:44:20.376Z,25.15
2023-06-13T13:46:49.556Z,26.33
2023-06-13T13:49:17.635Z,27.53
2023-06-13T13:51:48.747Z,27.32
2023-06-13T13:54:16.918Z,27.75
2023-06-13T13:56:45.513Z,26.87
2023-06-13T13:59:13.955Z,26.75
2023-06-13T14:01:41.995Z,28.28
2023-06-13T14:04:14.573Z,28.90
2023-06-13T14:06:42.894Z,28.90
2023-06-13T14:09:12.164Z,29.46
2023-06-13T14:11:40.165Z,29.89
2023-06-13T14:14:08.219Z,30.27
2023-06-13T14:16:36.940Z,30.75
2023-06-13T14:19:04.979Z,31.24
2023-06-13T14:21:34.475Z,31.14
2023-06-13T14:24:02.590Z,31.01
2023-06-13T14:26:33.822Z,30.64
2023-06-13T14:29:01.833Z,30.36
2023-06-13T14:31:30.046Z,30.83
2023-06-13T14:33:58.243Z,30.70
2023-06-13T14:36:26.294Z,30.69
2023-06-13T14:38:55.601Z,31.13
2023-06-13T14:41:23.788Z,30.95
2023-06-13T14:43:52.007Z,30.90
2023-06-13T14:46:20.090Z,30.92
2023-06-13T14:48:48.225Z,29.87
2023-06-13T14:51:16.256Z,30.05
2023-06-13T14:53:44.217Z,30.16
2023-06-13T14:56:13.947Z,30.11
2023-06-13T14:58:41.860Z,29.81
2023-06-13T15:01:10.388Z,30.18
2023-06-13T15:03:41.171Z,29.59
2023-06-13T15:06:09.416Z,29.14
2023-06-13T15:08:38.133Z,29.81
2023-06-13T15:11:06.079Z,30.08
2023-06-13T15:13:36.372Z,30.19
2023-06-13T15:16:04.655Z,30.20
2023-06-13T15:18:34.574Z,29.76
2023-06-13T15:21:02.541Z,29.54
2023-06-13T15:23:30.747Z,29.63
2023-06-13T15:28:26.705Z,29.47
2023-06-13T15:30:56.047Z,29.72
2023-06-13T15:33:24.535Z,29.86
2023-06-13T15:35:52.581Z,29.84
2023-06-13T15:38:20.598Z,29.13
2023-06-13T15:40:48.691Z,28.86
2023-06-13T15:43:16.577Z,28.92
2023-06-13T15:45:44.511Z,29.30
2023-06-13T15:48:13.783Z,28.71
2023-06-13T15:50:45.971Z,28.04
2023-06-13T15:53:14.013Z,28.01
2023-06-13T15:55:43.062Z,28.82
2023-06-13T15:58:12.086Z,28.62
2023-06-13T16:00:40.504Z,27.10
2023-06-13T16:03:09.069Z,27.90
2023-06-13T16:05:38.781Z,28.84
2023-06-13T16:08:07.025Z,29.74
2023-06-13T16:10:34.872Z,30.26
2023-06-13T16:13:03.806Z,31.13
2023-06-13T16:15:32.868Z,31.62
2023-06-13T16:18:01.129Z,31.84
2023-06-13T16:20:29.125Z,31.60
2023-06-13T16:23:00.259Z,31.47
2023-06-13T16:25:28.306Z,31.05
2023-06-13T16:27:56.266Z,31.63
2023-06-13T16:30:25.420Z,32.13
2023-06-13T16:32:54.855Z,32.46
2023-06-13T16:35:24.844Z,32.92
2023-06-13T16:37:53.048Z,33.16
2023-06-13T16:40:22.553Z,32.91
2023-06-13T16:42:51.236Z,33.07
2023-06-13T16:45:19.699Z,33.09
2023-06-13T16:47:47.996Z,33.36
2023-06-13T16:50:17.342Z,33.78
2023-06-13T16:52:45.936Z,34.18
2023-06-13T16:55:14.123Z,34.33
2023-06-13T16:57:43.607Z,34.58
2023-06-13T17:00:12.451Z,35.05
2023-06-13T17:02:40.596Z,35.32
2023-06-13T17:05:10.701Z,35.54
2023-06-13T17:07:39.775Z,35.19
2023-06-13T17:10:08.619Z,35.33
2023-06-13T17:12:43.458Z,35.52
2023-06-13T17:15:12.115Z,35.74
2023-06-13T17:17:40.378Z,35.76
2023-06-13T17:20:09.398Z,35.95
2023-06-13T17:22:37.664Z,36.28
2023-06-13T17:25:06.319Z,36.91
2023-06-13T17:27:34.263Z,36.41
2023-06-13T17:30:03.477Z,36.37
2023-06-13T17:32:32.226Z,36.72
2023-06-13T17:35:00.159Z,36.34
2023-06-13T17:37:28.621Z,36.46
2023-06-13T17:39:56.703Z,37.31
2023-06-13T17:42:24.721Z,38.58
2023-06-13T17:44:53.744Z,37.82
2023-06-13T17:47:23.142Z,37.65
2023-06-13T17:49:51.167Z,38.55
2023-06-13T17:52:19.104Z,38.12
2023-06-13T17:54:47.339Z,39.13
2023-06-13T17:57:15.311Z,38.64
2023-06-13T17:59:43.198Z,38.97
2023-06-13T18:02:12.467Z,40.48
2023-06-13T18:04:41.797Z,39.32
2023-06-13T18:07:10.032Z,39.25
2023-06-13T18:09:37.944Z,40.34
2023-06-13T18:12:16.997Z,39.42
2023-06-13T18:14:50.062Z,40.37
2023-06-13T18:17:18.068Z,41.14
2023-06-13T18:19:47.519Z,40.39
2023-06-13T18:22:16.406Z,40.61
2023-06-13T18:24:44.744Z,40.24
2023-06-13T18:27:13.374Z,40.85
2023-06-13T18:29:43.454Z,40.68
2023-06-13T18:32:13.075Z,41.47
2023-06-13T18:34:41.175Z,41.69
2023-06-13T18:37:10.502Z,42.04
2023-06-13T18:39:38.404Z,41.88
2023-06-13T18:42:07.654Z,42.55
2023-06-13T18:44:35.988Z,42.03
2023-06-13T18:47:04.014Z,42.15
2023-06-13T18:49:34.256Z,42.11
2023-06-13T18:52:03.839Z,42.76
2023-06-13T18:54:33.057Z,42.87
2023-06-13T18:57:01.575Z,44.06
2023-06-13T18:59:29.694Z,43.47
2023-06-13T19:01:57.699Z,44.15
2023-06-13T19:04:25.992Z,44.45
2023-06-13T19:06:54.365Z,44.50
2023-06-13T19:09:22.763Z,44.38
2023-06-13T19:11:52.033Z,44.51
2023-06-13T19:14:19.913Z,45.20
2023-06-13T19:16:47.840Z,44.70
2023-06-13T19:19:16.518Z,44.98
2023-06-13T19:21:46.476Z,44.90
2023-06-13T19:24:14.403Z,45.38
2023-06-13T19:26:43.672Z,46.22
2023-06-13T19:29:12.993Z,46.03
2023-06-13T19:31:40.896Z,46.45
2023-06-13T19:34:08.776Z,46.59
2023-06-13T19:36:36.673Z,46.41
2023-06-13T19:39:05.138Z,46.45
2023-06-13T19:41:33.110Z,47.05
2023-06-13T19:44:01.982Z,47.10
2023-06-13T19:46:31.626Z,47.44
2023-06-13T19:48:59.656Z,47.70
2023-06-13T19:51:28.981Z,47.40
2023-06-13T19:53:56.909Z,47.33
2023-06-13T19:56:25.651Z,47.86
2023-06-13T19:58:53.846Z,48.33
2023-06-13T20:01:22.892Z,48.59
2023-06-13T20:03:52.644Z,48.74
2023-06-13T20:06:21.287Z,48.65
2023-06-13T20:08:49.328Z,48.87
2023-06-13T20:11:18.209Z,49.06
2023-06-13T20:13:46.666Z,49.06
2023-06-13T20:16:17.012Z,49.69
2023-06-13T20:18:44.945Z,49.72
2023-06-13T20:21:14.285Z,49.81
2023-06-13T20:23:42.287Z,50.25
2023-06-13T20:26:10.349Z,50.52
2023-06-13T20:28:38.300Z,50.36
2023-06-13T20:31:06.574Z,50.79
2023-06-13T20:33:34.659Z,50.70
2023-06-13T20:36:02.667Z,50.98
2023-06-13T20:38:32.079Z,51.08
2023-06-13T20:40:59.990Z,50.68
2023-06-13T20:43:30.181Z,51.01
2023-06-13T20:46:00.586Z,51.36
2023-06-13T20:48:29.661Z,51.22
2023-06-13T20:50:59.002Z,51.64
2023-06-13T20:53:28.376Z,51.57
2023-06-13T20:55:57.619Z,51.52
2023-06-13T20:58:25.750Z,51.75
2023-06-13T21:00:56.576Z,51.88
2023-06-13T21:03:24.865Z,52.61
2023-06-13T21:05:53.235Z,52.91
2023-06-13T21:08:22.046Z,52.76
2023-06-13T21:10:50.059Z,52.93
2023-06-13T21:13:19.746Z,53.23
2023-06-13T21:15:50.179Z,53.22
2023-06-13T21:18:18.270Z,53.23
2023-06-13T21:20:46.288Z,53.33
2023-06-13T21:23:14.186Z,53.62
2023-06-13T21:25:42.231Z,53.48
2023-06-13T21:28:10.229Z,53.21
2023-06-13T21:30:39.410Z,53.51
2023-06-13T21:33:07.997Z,53.61
2023-06-13T21:35:36.002Z,53.92
2023-06-13T21:38:04.103Z,53.78
2023-06-13T21:40:32.074Z,53.62
2023-06-13T21:42:59.993Z,54.17
2023-06-13T21:45:32.351Z,54.26
2023-06-13T21:48:02.599Z,54.21
2023-06-13T21:50:31.728Z,54.43
2023-06-13T21:52:59.748Z,54.77
2023-06-13T21:55:27.612Z,55.41
2023-06-13T21:57:55.646Z,55.37
2023-06-13T22:00:24.477Z,55.36
2023-06-13T22:02:53.339Z,55.76
2023-06-13T22:05:23.099Z,55.76
2023-06-13T22:07:51.362Z,55.91
2023-06-13T22:10:20.214Z,55.76
2023-06-13T22:12:51.232Z,55.79
2023-06-13T22:15:19.641Z,55.88
2023-06-13T22:17:52.578Z,55.63
2023-06-13T22:20:24.832Z,55.75
2023-06-13T22:22:55.009Z,56.11
2023-06-13T22:25:23.593Z,56.29
2023-06-13T22:27:53.425Z,56.52
2023-06-13T22:30:22.251Z,56.81
2023-06-13T22:32:51.729Z,56.83
2023-06-13T22:35:20.277Z,56.98
2023-06-13T22:37:50.561Z,57.61
2023-06-13T22:40:19.040Z,57.54
2023-06-13T22:42:47.449Z,57.47
2023-06-13T22:45:15.588Z,57.52
2023-06-13T22:47:43.518Z,57.57
2023-06-13T22:50:12.180Z,58.20
2023-06-13T22:52:41.994Z,58.36
2023-06-13T22:55:11.428Z,58.19
2023-06-13T22:57:39.340Z,58.27
2023-06-13T23:00:11.661Z,58.64
2023-06-13T23:02:39.838Z,58.62
2023-06-13T23:05:08.640Z,58.76
2023-06-13T23:07:36.738Z,59.08
2023-06-13T23:10:05.368Z,58.82
2023-06-13T23:12:34.740Z,59.75
2023-06-13T23:15:02.689Z,59.44
2023-06-13T23:17:31.103Z,59.55
2023-06-13T23:19:59.294Z,59.30
2023-06-13T23:22:29.092Z,59.51
2023-06-13T23:24:57.612Z,60.32
2023-06-13T23:27:26.068Z,60.80
2023-06-13T23:29:57.613Z,60.89
2023-06-13T23:32:29.044Z,60.68
2023-06-13T23:34:58.491Z,60.59
2023-06-13T23:37:29.028Z,60.74
2023-06-13T23:39:57.006Z,61.03
2023-06-13T23:42:26.422Z,61.07
2023-06-13T23:44:55.757Z,61.05
2023-06-13T23:47:23.841Z,61.17
